createdAt,value
2016-11-19T00:00:59.023Z,95.75
2016-11-19T00:01:58.988Z,95.65
2016-11-19T00:02:58.947Z,95.84
2016-11-19T00:03:58.608Z,96.03
2016-11-19T00:04:58.870Z,96.03
2016-11-19T00:05:58.529Z,95.84
2016-11-19T00:06:58.486Z,95.75
2016-11-19T00:07:58.751Z,95.94
2016-11-19T00:08:58.714Z,95.65
2016-11-19T00:09:58.370Z,96.12
2016-11-19T00:10:58.635Z,95.94
2016-11-19T00:11:58.597Z,96.6
2016-11-19T00:12:58.558Z,96.31
2016-11-19T00:13:58.515Z,96.41
2016-11-19T00:14:58.477Z,96.22
2016-11-19T00:15:58.437Z,96.41
2016-11-19T00:16:58.403Z,96.69
2016-11-19T00:17:58.360Z,96.69
2016-11-19T00:18:58.317Z,96.6
2016-11-19T00:19:58.280Z,96.41
2016-11-19T00:20:58.242Z,96.6
2016-11-19T00:21:58.202Z,96.22
2016-11-19T00:22:58.160Z,96.12
2016-11-19T00:23:58.121Z,96.31
2016-11-19T00:24:57.779Z,96.6
2016-11-19T00:25:58.045Z,96.41
2016-11-19T00:26:57.701Z,96.6
2016-11-19T00:27:57.967Z,96.31
2016-11-19T00:28:57.624Z,96.31
2016-11-19T00:29:57.885Z,96.12
2016-11-19T00:30:57.849Z,96.31
2016-11-19T00:31:57.809Z,96.69
2016-11-19T00:32:57.769Z,96.88
2016-11-19T00:33:57.728Z,96.5
2016-11-19T00:34:57.700Z,96.41
2016-11-19T00:35:57.654Z,96.31
2016-11-19T00:36:57.611Z,96.5
2016-11-19T00:37:57.574Z,96.6
2016-11-19T00:38:57.535Z,96.6
2016-11-19T00:39:57.195Z,96.5
2016-11-19T00:40:57.459Z,96.31
2016-11-19T00:41:57.417Z,96.31
2016-11-19T00:42:57.378Z,96.69
2016-11-19T00:43:57.036Z,96.69
2016-11-19T00:44:57.299Z,96.69
2016-11-19T00:45:57.260Z,96.6
2016-11-19T00:46:56.918Z,96.88
2016-11-19T00:47:57.182Z,96.6
2016-11-19T00:48:57.142Z,96.69
2016-11-19T00:49:57.102Z,96.5
2016-11-19T00:50:56.760Z,96.22
2016-11-19T00:51:57.028Z,96.5
2016-11-19T00:52:56.986Z,96.22
2016-11-19T00:53:56.946Z,96.31
2016-11-19T00:54:56.908Z,96.69
2016-11-19T00:55:56.868Z,96.31
2016-11-19T00:56:56.860Z,96.41
2016-11-19T00:57:56.790Z,96.31
2016-11-19T00:58:56.450Z,96.41
2016-11-19T00:59:56.718Z,96.22
2016-11-19T01:00:56.671Z,96.41
2016-11-19T01:01:56.331Z,96.69
2016-11-19T01:02:56.591Z,96.69
2016-11-19T01:03:56.551Z,96.6
2016-11-19T01:04:56.516Z,96.69
2016-11-19T01:05:56.478Z,95.94
2016-11-19T01:06:56.131Z,96.12
2016-11-19T01:07:56.397Z,96.31
2016-11-19T01:08:56.357Z,96.22
2016-11-19T01:09:56.326Z,96.31
2016-11-19T01:10:56.275Z,96.6
2016-11-19T01:11:56.241Z,96.12
2016-11-19T01:12:56.200Z,96.22
2016-11-19T01:13:56.163Z,96.03
2016-11-19T01:14:56.119Z,96.03
2016-11-19T01:15:56.080Z,95.84
2016-11-19T01:16:56.042Z,96.6
2016-11-19T01:17:56.002Z,96.22
2016-11-19T01:18:55.663Z,96.22
2016-11-19T01:19:55.924Z,96.31
2016-11-19T01:20:55.881Z,96.31
2016-11-19T01:21:55.845Z,96.5
2016-11-19T01:22:55.505Z,96.31
2016-11-19T01:23:55.767Z,96.12
2016-11-19T01:24:55.729Z,95.94
2016-11-19T01:25:55.383Z,96.79
2016-11-19T01:26:55.648Z,96.5
2016-11-19T01:27:55.610Z,96.41
2016-11-19T01:28:55.266Z,96.6
2016-11-19T01:29:55.531Z,96.5
2016-11-19T01:30:55.238Z,96.5
2016-11-19T01:31:55.148Z,96.69
2016-11-19T01:32:55.441Z,96.5
2016-11-19T01:33:55.370Z,96.31
2016-11-19T01:34:55.337Z,96.41
2016-11-19T01:35:55.297Z,96.31
2016-11-19T01:36:55.254Z,96.12
2016-11-19T01:37:54.913Z,96.12
2016-11-19T01:38:55.179Z,96.31
2016-11-19T01:39:54.834Z,96.5
2016-11-19T01:40:55.097Z,96.69
2016-11-19T01:41:55.058Z,96.31
2016-11-19T01:42:55.019Z,96.6
2016-11-19T01:43:54.680Z,96.69
2016-11-19T01:44:54.943Z,96.83
2016-11-19T01:45:54.898Z,97.27
2016-11-19T01:46:54.555Z,97.36
2016-11-19T01:47:54.819Z,97.83
2016-11-19T01:48:54.784Z,97.74
2016-11-19T01:49:54.741Z,97.6
2016-11-19T01:50:54.702Z,97.69
2016-11-19T01:51:54.662Z,97.97
2016-11-19T01:52:54.622Z,98.26
2016-11-19T01:53:54.581Z,97.78
2016-11-19T01:54:54.542Z,97.97
2016-11-19T01:55:54.507Z,98.26
2016-11-19T01:56:54.161Z,98.45
2016-11-19T01:57:54.423Z,98.83
2016-11-19T01:58:54.386Z,98.45
2016-11-19T01:59:54.347Z,98.64
2016-11-19T02:00:54.307Z,98.64
2016-11-19T02:01:54.265Z,98.92
2016-11-19T02:02:54.236Z,98.92
2016-11-19T02:03:54.184Z,98.64
2016-11-19T02:04:54.143Z,98.83
2016-11-19T02:05:54.106Z,98.73
2016-11-19T02:06:54.065Z,98.92
2016-11-19T02:07:54.023Z,99.11
2016-11-19T02:08:54.015Z,98.83
2016-11-19T02:09:53.946Z,98.92
2016-11-19T02:10:53.907Z,99.11
2016-11-19T02:11:53.867Z,99.49
2016-11-19T02:12:53.825Z,99.4
2016-11-19T02:13:53.791Z,99.3
2016-11-19T02:14:53.751Z,99.21
2016-11-19T02:15:53.708Z,98.92
2016-11-19T02:16:53.669Z,99.02
2016-11-19T02:17:53.627Z,98.92
2016-11-19T02:18:53.588Z,99.02
2016-11-19T02:19:53.247Z,99.11
2016-11-19T02:20:53.511Z,98.83
2016-11-19T02:21:53.210Z,98.92
2016-11-19T02:22:53.432Z,98.83
2016-11-19T02:23:53.390Z,99.02
2016-11-19T02:24:53.361Z,99.02
2016-11-19T02:25:53.310Z,99.02
2016-11-19T02:26:52.970Z,98.92
2016-11-19T02:27:53.251Z,99.49
2016-11-19T02:28:53.198Z,98.73
2016-11-19T02:29:53.151Z,99.3
2016-11-19T02:30:53.106Z,99.49
2016-11-19T02:31:53.073Z,99.49
2016-11-19T02:32:53.032Z,99.49
2016-11-19T02:33:52.988Z,99.4
2016-11-19T02:34:52.952Z,98.92
2016-11-19T02:35:52.915Z,99.21
2016-11-19T02:36:52.872Z,98.73
2016-11-19T02:37:52.841Z,99.4
2016-11-19T02:38:52.792Z,99.49
2016-11-19T02:39:52.750Z,98.64
2016-11-19T02:40:52.716Z,98.64
2016-11-19T02:41:52.670Z,98.73
2016-11-19T02:42:52.330Z,98.26
2016-11-19T02:43:52.600Z,98.45
2016-11-19T02:44:52.555Z,98.54
2016-11-19T02:45:52.517Z,98.54
2016-11-19T02:46:52.171Z,98.54
2016-11-19T02:47:52.431Z,98.16
2016-11-19T02:48:52.392Z,97.78
2016-11-19T02:49:52.351Z,98.07
2016-11-19T02:50:52.322Z,98.07
2016-11-19T02:51:52.276Z,97.88
2016-11-19T02:52:52.231Z,97.6
2016-11-19T02:53:52.195Z,97.6
2016-11-19T02:54:52.151Z,97.88
2016-11-19T02:55:52.111Z,97.78
2016-11-19T02:56:52.071Z,98.07
2016-11-19T02:57:52.034Z,97.78
2016-11-19T02:58:52.026Z,97.6
2016-11-19T02:59:51.956Z,97.5
2016-11-19T03:00:51.925Z,97.6
2016-11-19T03:01:51.875Z,97.69
2016-11-19T03:02:51.535Z,97.12
2016-11-19T03:03:51.497Z,97.12
2016-11-19T03:04:51.754Z,97.69
2016-11-19T03:05:51.716Z,97.69
2016-11-19T03:06:51.677Z,97.88
2016-11-19T03:07:51.635Z,97.78
2016-11-19T03:08:51.597Z,97.69
2016-11-19T03:09:51.562Z,97.69
2016-11-19T03:10:51.518Z,97.88
2016-11-19T03:11:51.477Z,97.12
2016-11-19T03:12:51.441Z,97.78
2016-11-19T03:13:51.397Z,97.78
2016-11-19T03:14:51.357Z,97.6
2016-11-19T03:15:51.317Z,97.5
2016-11-19T03:16:51.282Z,97.69
2016-11-19T03:17:51.247Z,97.31
2016-11-19T03:18:51.196Z,97.78
2016-11-19T03:19:51.158Z,97.69
2016-11-19T03:20:51.117Z,98.35
2016-11-19T03:21:51.081Z,98.54
2016-11-19T03:22:51.041Z,98.92
2016-11-19T03:23:50.998Z,98.54
2016-11-19T03:24:50.959Z,98.54
2016-11-19T03:25:50.919Z,98.73
2016-11-19T03:26:50.879Z,99.49
2016-11-19T03:27:50.838Z,99.49
2016-11-19T03:28:50.803Z,98.83
2016-11-19T03:29:50.758Z,99.21
2016-11-19T03:30:50.719Z,99.4
2016-11-19T03:31:50.378Z,99.68
2016-11-19T03:32:50.642Z,99.97
2016-11-19T03:33:50.600Z,99.49
2016-11-19T03:34:50.564Z,99.99
2016-11-19T03:35:50.522Z,99.99
2016-11-19T03:36:50.205Z,99.99
2016-11-19T03:37:50.439Z,99.99
2016-11-19T03:38:50.402Z,99.99
2016-11-19T03:39:50.358Z,99.99
2016-11-19T03:40:50.326Z,99.99
2016-11-19T03:41:49.982Z,99.99
2016-11-19T03:42:50.239Z,99.99
2016-11-19T03:43:50.203Z,99.99
2016-11-19T03:44:49.856Z,99.99
2016-11-19T03:45:50.122Z,99.99
2016-11-19T03:46:50.079Z,99.99
2016-11-19T03:47:50.070Z,99.99
2016-11-19T03:48:49.997Z,99.99
2016-11-19T03:49:49.658Z,99.99
2016-11-19T03:50:49.921Z,99.99
2016-11-19T03:51:49.879Z,99.99
2016-11-19T03:52:49.842Z,99.99
2016-11-19T03:53:49.803Z,99.99
2016-11-19T03:54:49.458Z,99.99
2016-11-19T03:55:49.721Z,99.99
2016-11-19T03:56:49.680Z,99.99
2016-11-19T03:57:49.640Z,99.99
2016-11-19T03:58:49.601Z,99.99
2016-11-19T03:59:49.560Z,99.99
2016-11-19T04:00:49.220Z,99.99
2016-11-19T04:01:49.477Z,99.99
2016-11-19T04:02:49.443Z,99.99
2016-11-19T04:03:49.400Z,99.99
2016-11-19T04:04:49.366Z,99.99
2016-11-19T04:05:49.319Z,99.99
2016-11-19T04:06:49.286Z,99.99
2016-11-19T04:07:49.265Z,99.99
2016-11-19T04:08:49.198Z,99.99
2016-11-19T04:09:49.158Z,99.99
2016-11-19T04:10:49.120Z,99.99
2016-11-19T04:11:49.077Z,99.99
2016-11-19T04:12:49.036Z,99.99
2016-11-19T04:13:48.695Z,99.99
2016-11-19T04:14:48.958Z,99.99
2016-11-19T04:15:48.917Z,99.99
2016-11-19T04:16:48.877Z,99.99
2016-11-19T04:17:48.535Z,99.99
2016-11-19T04:18:48.797Z,99.99
2016-11-19T04:19:48.454Z,99.99
2016-11-19T04:20:48.717Z,99.99
2016-11-19T04:21:48.679Z,99.99
2016-11-19T04:22:48.637Z,99.99
2016-11-19T04:23:48.595Z,99.99
2016-11-19T04:24:48.557Z,99.99
2016-11-19T04:25:48.517Z,99.99
2016-11-19T04:26:48.174Z,99.99
2016-11-19T04:27:48.134Z,99.99
2016-11-19T04:28:48.394Z,99.99
2016-11-19T04:29:48.353Z,99.99
2016-11-19T04:30:48.314Z,99.99
2016-11-19T04:31:48.272Z,99.99
2016-11-19T04:32:48.237Z,99.99
2016-11-19T04:33:48.193Z,99.99
2016-11-19T04:34:48.153Z,99.99
2016-11-19T04:35:48.110Z,99.99
2016-11-19T04:36:48.074Z,99.99
2016-11-19T04:37:48.033Z,99.99
2016-11-19T04:38:47.993Z,99.99
2016-11-19T04:39:47.950Z,99.99
2016-11-19T04:40:47.912Z,99.99
2016-11-19T04:41:47.874Z,99.99
2016-11-19T04:42:47.833Z,99.99
2016-11-19T04:43:47.795Z,99.99
2016-11-19T04:44:47.752Z,99.99
2016-11-19T04:45:47.709Z,99.99
2016-11-19T04:46:47.670Z,99.99
2016-11-19T04:47:47.631Z,99.99
2016-11-19T04:48:47.595Z,99.99
2016-11-19T04:49:47.550Z,99.99
2016-11-19T04:50:47.511Z,99.99
2016-11-19T04:51:47.472Z,99.99
2016-11-19T04:52:47.436Z,99.99
2016-11-19T04:53:47.394Z,99.99
2016-11-19T04:54:47.348Z,99.99
2016-11-19T04:55:47.310Z,99.99
2016-11-19T04:56:47.267Z,99.99
2016-11-19T04:57:47.228Z,99.99
2016-11-19T04:58:47.189Z,99.99
2016-11-19T04:59:47.147Z,99.99
2016-11-19T05:00:47.106Z,99.99
2016-11-19T05:01:47.067Z,99.99
2016-11-19T05:02:46.726Z,99.99
2016-11-19T05:03:47.017Z,99.99
2016-11-19T05:04:46.949Z,99.99
2016-11-19T05:05:46.906Z,99.99
2016-11-19T05:06:46.867Z,99.99
2016-11-19T05:07:46.828Z,99.99
2016-11-19T05:08:46.785Z,99.99
2016-11-19T05:09:46.443Z,99.99
2016-11-19T05:10:46.706Z,99.99
2016-11-19T05:11:46.666Z,99.99
2016-11-19T05:12:46.319Z,99.99
2016-11-19T05:13:46.585Z,99.99
2016-11-19T05:14:46.544Z,99.99
2016-11-19T05:15:46.503Z,99.99
2016-11-19T05:16:46.462Z,99.99
2016-11-19T05:17:46.424Z,99.99
2016-11-19T05:18:46.383Z,99.99
2016-11-19T05:19:46.369Z,99.99
2016-11-19T05:20:46.304Z,99.99
2016-11-19T05:21:46.263Z,99.99
2016-11-19T05:22:46.222Z,99.99
2016-11-19T05:23:46.183Z,99.99
2016-11-19T05:24:46.141Z,99.99
2016-11-19T05:25:46.104Z,99.99
2016-11-19T05:26:45.761Z,99.99
2016-11-19T05:27:46.018Z,99.99
2016-11-19T05:28:45.979Z,99.99
2016-11-19T05:29:45.941Z,99.99
2016-11-19T05:30:45.900Z,99.99
2016-11-19T05:31:45.860Z,99.99
2016-11-19T05:32:45.819Z,99.99
2016-11-19T05:33:45.779Z,99.99
2016-11-19T05:34:45.436Z,99.99
2016-11-19T05:35:45.701Z,99.99
2016-11-19T05:36:45.656Z,99.99
2016-11-19T05:37:45.615Z,99.99
2016-11-19T05:38:45.581Z,99.99
2016-11-19T05:39:45.535Z,99.99
2016-11-19T05:40:45.194Z,99.99
2016-11-19T05:41:45.453Z,99.99
2016-11-19T05:42:45.415Z,99.99
2016-11-19T05:43:45.372Z,99.99
2016-11-19T05:44:45.336Z,99.99
2016-11-19T05:45:45.294Z,99.99
2016-11-19T05:46:45.253Z,99.99
2016-11-19T05:47:44.908Z,99.99
2016-11-19T05:48:45.172Z,99.99
2016-11-19T05:49:45.132Z,99.99
2016-11-19T05:50:45.093Z,99.99
2016-11-19T05:51:45.052Z,99.99
2016-11-19T05:52:45.013Z,99.99
2016-11-19T05:53:44.671Z,99.99
2016-11-19T05:54:44.930Z,99.99
2016-11-19T05:55:44.589Z,99.99
2016-11-19T05:56:44.849Z,99.99
2016-11-19T05:57:44.808Z,99.99
2016-11-19T05:58:44.773Z,99.99
2016-11-19T05:59:44.728Z,99.99
2016-11-19T06:00:44.690Z,99.99
2016-11-19T06:01:44.653Z,99.99
2016-11-19T06:02:44.608Z,99.99
2016-11-19T06:03:44.569Z,99.99
2016-11-19T06:04:44.530Z,99.99
2016-11-19T06:05:44.489Z,99.99
2016-11-19T06:06:44.449Z,99.99
2016-11-19T06:07:44.410Z,99.99
2016-11-19T06:08:44.065Z,99.99
2016-11-19T06:09:44.326Z,99.99
2016-11-19T06:10:44.311Z,99.99
2016-11-19T06:11:44.243Z,99.99
2016-11-19T06:12:44.218Z,99.99
2016-11-19T06:13:44.166Z,99.99
2016-11-19T06:14:44.129Z,99.99
2016-11-19T06:15:44.087Z,99.99
2016-11-19T06:16:44.044Z,99.99
2016-11-19T06:17:44.003Z,99.99
2016-11-19T06:18:43.963Z,99.99
2016-11-19T06:19:43.921Z,99.99
2016-11-19T06:20:43.882Z,99.99
2016-11-19T06:21:43.842Z,99.99
2016-11-19T06:22:43.802Z,99.99
2016-11-19T06:23:43.763Z,99.99
2016-11-19T06:24:43.723Z,99.99
2016-11-19T06:25:43.681Z,99.99
2016-11-19T06:26:43.641Z,99.99
2016-11-19T06:27:43.603Z,99.99
2016-11-19T06:28:43.263Z,99.99
2016-11-19T06:29:43.220Z,99.99
2016-11-19T06:30:43.482Z,99.99
2016-11-19T06:31:43.441Z,99.99
2016-11-19T06:32:43.400Z,99.99
2016-11-19T06:33:43.357Z,99.99
2016-11-19T06:34:43.318Z,99.99
2016-11-19T06:35:43.279Z,99.99
2016-11-19T06:36:42.940Z,99.99
2016-11-19T06:37:42.896Z,99.99
2016-11-19T06:38:43.159Z,99.99
2016-11-19T06:39:42.816Z,99.99
2016-11-19T06:40:43.080Z,99.99
2016-11-19T06:41:43.038Z,99.99
2016-11-19T06:42:42.996Z,99.99
2016-11-19T06:43:42.960Z,99.99
2016-11-19T06:44:42.616Z,99.99
2016-11-19T06:45:42.881Z,99.99
2016-11-19T06:46:42.836Z,99.99
2016-11-19T06:47:42.798Z,99.99
2016-11-19T06:48:42.461Z,99.99
2016-11-19T06:49:42.715Z,99.99
2016-11-19T06:50:42.676Z,99.99
2016-11-19T06:51:42.656Z,99.99
2016-11-19T06:52:42.295Z,99.99
2016-11-19T06:53:42.561Z,99.99
2016-11-19T06:54:42.213Z,99.99
2016-11-19T06:55:42.478Z,99.99
2016-11-19T06:56:42.438Z,99.99
2016-11-19T06:57:42.395Z,99.99
2016-11-19T06:58:42.357Z,99.99
2016-11-19T06:59:42.314Z,99.99
2016-11-19T07:00:42.273Z,99.99
2016-11-19T07:01:42.237Z,99.99
2016-11-19T07:02:42.194Z,99.99
2016-11-19T07:03:42.160Z,99.99
2016-11-19T07:04:42.114Z,99.99
2016-11-19T07:05:42.079Z,99.99
2016-11-19T07:06:43.047Z,99.99
2016-11-19T07:07:41.994Z,99.99
2016-11-19T07:08:42.468Z,99.99
2016-11-19T07:09:41.943Z,99.99
2016-11-19T07:10:42.718Z,99.99
2016-11-19T07:11:42.567Z,99.99
2016-11-19T07:12:41.831Z,99.99
2016-11-19T07:13:41.781Z,99.99
2016-11-19T07:14:42.887Z,99.99
2016-11-19T07:15:42.151Z,99.99
2016-11-19T07:16:41.907Z,99.99
2016-11-19T07:17:41.636Z,99.99
2016-11-19T07:18:42.702Z,99.99
2016-11-19T07:19:41.781Z,99.99
2016-11-19T07:20:42.555Z,99.99
2016-11-19T07:21:41.898Z,99.99
2016-11-19T07:22:42.041Z,99.99
2016-11-19T07:23:41.430Z,99.99
2016-11-19T07:24:42.153Z,99.99
2016-11-19T07:25:41.947Z,99.99
2016-11-19T07:26:41.804Z,99.99
2016-11-19T07:27:42.051Z,99.99
2016-11-19T07:28:42.154Z,99.99
2016-11-19T07:29:41.121Z,99.99
2016-11-19T07:30:40.764Z,99.99
2016-11-19T07:31:41.030Z,99.99
2016-11-19T07:32:41.839Z,99.99
2016-11-19T07:33:41.502Z,99.99
2016-11-19T07:34:41.119Z,99.99
2016-11-19T07:35:41.984Z,99.99
2016-11-19T07:36:41.848Z,99.99
2016-11-19T07:37:40.787Z,99.99
2016-11-19T07:38:40.749Z,99.99
2016-11-19T07:39:40.706Z,99.99
2016-11-19T07:40:40.668Z,99.99
2016-11-19T07:41:40.629Z,99.99
2016-11-19T07:42:40.592Z,99.99
2016-11-19T07:43:40.549Z,99.99
2016-11-19T07:44:40.510Z,99.99
2016-11-19T07:45:40.468Z,99.99
2016-11-19T07:46:41.273Z,99.99
2016-11-19T07:47:40.388Z,99.99
2016-11-19T07:48:40.344Z,99.99
2016-11-19T07:49:41.044Z,99.99
2016-11-19T07:50:41.107Z,99.99
2016-11-19T07:51:40.394Z,99.99
2016-11-19T07:52:40.783Z,99.99
2016-11-19T07:53:40.908Z,99.99
2016-11-19T07:54:40.332Z,99.99
2016-11-19T07:55:40.625Z,99.99
2016-11-19T07:56:40.883Z,99.99
2016-11-19T07:57:40.722Z,99.99
2016-11-19T07:58:40.053Z,99.99
2016-11-19T07:59:40.899Z,99.99
2016-11-19T08:00:40.961Z,99.99
2016-11-19T08:01:40.426Z,99.99
2016-11-19T08:02:40.132Z,99.99
2016-11-19T08:03:40.913Z,99.99
2016-11-19T08:04:39.703Z,99.99
2016-11-19T08:05:39.664Z,99.99
2016-11-19T08:06:39.626Z,99.99
2016-11-19T08:07:39.584Z,99.99
2016-11-19T08:08:39.548Z,99.99
2016-11-19T08:09:39.503Z,99.99
2016-11-19T08:10:39.465Z,99.99
2016-11-19T08:11:39.423Z,99.99
2016-11-19T08:12:39.386Z,99.99
2016-11-19T08:13:39.042Z,99.99
2016-11-19T08:14:39.012Z,99.99
2016-11-19T08:15:39.266Z,99.99
2016-11-19T08:16:39.224Z,99.99
2016-11-19T08:17:39.184Z,99.99
2016-11-19T08:18:39.143Z,99.99
2016-11-19T08:19:39.104Z,99.99
2016-11-19T08:20:38.763Z,99.99
2016-11-19T08:21:39.036Z,99.99
2016-11-19T08:22:38.990Z,99.99
2016-11-19T08:23:38.944Z,99.99
2016-11-19T08:24:38.905Z,99.99
2016-11-19T08:25:38.867Z,99.99
2016-11-19T08:26:38.824Z,99.99
2016-11-19T08:27:38.790Z,99.99
2016-11-19T08:28:38.748Z,99.99
2016-11-19T08:29:38.707Z,99.99
2016-11-19T08:30:38.667Z,99.99
2016-11-19T08:31:38.626Z,99.99
2016-11-19T08:32:38.589Z,99.99
2016-11-19T08:33:38.549Z,99.99
2016-11-19T08:34:38.508Z,99.99
2016-11-19T08:35:38.466Z,99.99
2016-11-19T08:36:38.125Z,99.99
2016-11-19T08:37:38.392Z,99.99
2016-11-19T08:38:39.141Z,99.99
2016-11-19T08:39:38.307Z,99.99
2016-11-19T08:40:38.563Z,99.99
2016-11-19T08:41:38.420Z,99.99
2016-11-19T08:42:38.248Z,99.99
2016-11-19T08:43:39.046Z,99.99
2016-11-19T08:44:38.201Z,99.99
2016-11-19T08:45:38.714Z,99.99
2016-11-19T08:46:38.037Z,99.99
2016-11-19T08:47:37.790Z,99.99
2016-11-19T08:48:38.401Z,99.99
2016-11-19T08:49:38.111Z,99.99
2016-11-19T08:50:38.004Z,99.99
2016-11-19T08:51:38.267Z,99.99
2016-11-19T08:52:38.059Z,99.99
2016-11-19T08:53:38.018Z,99.99
2016-11-19T08:54:38.135Z,99.99
2016-11-19T08:55:37.960Z,99.99
2016-11-19T08:56:37.843Z,99.99
2016-11-19T08:57:37.291Z,99.99
2016-11-19T08:58:37.256Z,99.99
2016-11-19T08:59:37.211Z,99.99
2016-11-19T09:00:37.512Z,99.99
2016-11-19T09:01:37.435Z,99.99
2016-11-19T09:02:37.095Z,99.99
2016-11-19T09:03:37.363Z,99.99
2016-11-19T09:04:37.317Z,99.99
2016-11-19T09:05:36.976Z,99.99
2016-11-19T09:06:37.238Z,99.99
2016-11-19T09:07:37.203Z,99.99
2016-11-19T09:08:37.160Z,99.99
2016-11-19T09:09:37.118Z,99.99
2016-11-19T09:10:37.078Z,99.99
2016-11-19T09:11:37.043Z,99.99
2016-11-19T09:12:36.998Z,99.99
2016-11-19T09:13:36.962Z,99.99
2016-11-19T09:14:36.621Z,99.99
2016-11-19T09:15:36.884Z,99.99
2016-11-19T09:16:36.849Z,99.99
2016-11-19T09:17:36.504Z,99.99
2016-11-19T09:18:36.765Z,99.99
2016-11-19T09:19:36.727Z,99.99
2016-11-19T09:20:36.692Z,99.99
2016-11-19T09:21:36.658Z,99.99
2016-11-19T09:22:36.610Z,99.99
2016-11-19T09:23:36.568Z,99.99
2016-11-19T09:24:36.530Z,99.99
2016-11-19T09:25:36.490Z,99.99
2016-11-19T09:26:36.450Z,99.99
2016-11-19T09:27:36.416Z,99.99
2016-11-19T09:28:36.376Z,99.99
2016-11-19T09:29:36.341Z,99.99
2016-11-19T09:30:35.998Z,99.99
2016-11-19T09:31:36.253Z,99.99
2016-11-19T09:32:36.213Z,99.99
2016-11-19T09:33:36.175Z,99.99
2016-11-19T09:34:36.136Z,99.99
2016-11-19T09:35:36.099Z,99.99
2016-11-19T09:36:36.058Z,99.99
2016-11-19T09:37:36.021Z,99.99
2016-11-19T09:38:35.978Z,99.99
2016-11-19T09:39:35.946Z,99.99
2016-11-19T09:40:35.899Z,99.99
2016-11-19T09:41:35.860Z,99.99
2016-11-19T09:42:35.819Z,99.99
2016-11-19T09:43:35.782Z,99.99
2016-11-19T09:44:35.741Z,99.99
2016-11-19T09:45:35.699Z,99.99
2016-11-19T09:46:35.667Z,99.99
2016-11-19T09:47:35.625Z,99.99
2016-11-19T09:48:35.583Z,99.99
2016-11-19T09:49:35.543Z,99.99
2016-11-19T09:50:35.506Z,99.99
2016-11-19T09:51:35.467Z,99.99
2016-11-19T09:52:35.429Z,99.99
2016-11-19T09:53:35.386Z,99.99
2016-11-19T09:54:35.346Z,99.99
2016-11-19T09:55:35.304Z,99.99
2016-11-19T09:56:35.266Z,99.99
2016-11-19T09:57:35.225Z,99.99
2016-11-19T09:58:34.885Z,99.99
2016-11-19T09:59:35.147Z,99.99
2016-11-19T10:00:35.109Z,99.99
2016-11-19T10:01:35.069Z,99.99
2016-11-19T10:02:35.034Z,99.99
2016-11-19T10:03:34.990Z,99.99
2016-11-19T10:04:34.955Z,99.99
2016-11-19T10:05:34.910Z,99.99
2016-11-19T10:06:34.872Z,99.99
2016-11-19T10:07:34.532Z,99.99
2016-11-19T10:08:34.793Z,99.99
2016-11-19T10:09:34.756Z,99.99
2016-11-19T10:10:34.417Z,99.99
2016-11-19T10:11:34.379Z,99.99
2016-11-19T10:12:34.636Z,99.99
2016-11-19T10:13:34.597Z,99.99
2016-11-19T10:14:34.254Z,99.99
2016-11-19T10:15:34.521Z,99.99
2016-11-19T10:16:34.183Z,99.99
2016-11-19T10:17:34.455Z,99.99
2016-11-19T10:18:34.399Z,99.99
2016-11-19T10:19:34.361Z,99.99
2016-11-19T10:20:34.326Z,99.99
2016-11-19T10:21:34.280Z,99.99
2016-11-19T10:22:34.241Z,99.99
2016-11-19T10:23:34.203Z,99.99
2016-11-19T10:24:33.861Z,99.99
2016-11-19T10:25:34.123Z,99.99
2016-11-19T10:26:34.084Z,99.99
2016-11-19T10:27:33.747Z,99.99
2016-11-19T10:28:34.003Z,99.99
2016-11-19T10:29:33.969Z,99.99
2016-11-19T10:30:33.927Z,99.99
2016-11-19T10:31:33.922Z,99.99
2016-11-19T10:32:33.846Z,99.99
2016-11-19T10:33:33.812Z,99.99
2016-11-19T10:34:33.466Z,99.99
2016-11-19T10:35:33.729Z,99.99
2016-11-19T10:36:33.692Z,99.99
2016-11-19T10:37:33.650Z,99.99
2016-11-19T10:38:33.614Z,99.99
2016-11-19T10:39:33.575Z,99.99
2016-11-19T10:40:33.531Z,99.99
2016-11-19T10:41:33.188Z,99.99
2016-11-19T10:42:33.451Z,99.99
2016-11-19T10:43:33.408Z,99.99
2016-11-19T10:44:33.374Z,99.99
2016-11-19T10:45:33.333Z,99.99
2016-11-19T10:46:33.296Z,99.99
2016-11-19T10:47:33.252Z,99.99
2016-11-19T10:48:33.215Z,99.99
2016-11-19T10:49:33.177Z,99.99
2016-11-19T10:50:32.832Z,99.99
2016-11-19T10:51:33.102Z,99.99
2016-11-19T10:52:33.056Z,99.99
2016-11-19T10:53:33.046Z,99.99
2016-11-19T10:54:32.974Z,99.99
2016-11-19T10:55:32.637Z,99.99
2016-11-19T10:56:32.901Z,99.99
2016-11-19T10:57:32.858Z,99.99
2016-11-19T10:58:32.817Z,99.99
2016-11-19T10:59:32.782Z,99.99
2016-11-19T11:00:32.740Z,99.99
2016-11-19T11:01:32.698Z,99.99
2016-11-19T11:02:32.659Z,99.99
2016-11-19T11:03:32.316Z,99.99
2016-11-19T11:04:32.579Z,99.99
2016-11-19T11:05:32.540Z,99.99
2016-11-19T11:06:32.501Z,99.99
2016-11-19T11:07:32.466Z,99.99
2016-11-19T11:08:32.421Z,99.99
2016-11-19T11:09:32.384Z,99.99
2016-11-19T11:10:32.342Z,99.99
2016-11-19T11:11:32.302Z,99.99
2016-11-19T11:12:32.267Z,99.99
2016-11-19T11:13:32.224Z,99.99
2016-11-19T11:14:32.183Z,99.99
2016-11-19T11:15:32.144Z,99.99
2016-11-19T11:16:32.101Z,99.99
2016-11-19T11:17:32.068Z,99.99
2016-11-19T11:18:32.027Z,99.99
2016-11-19T11:19:31.983Z,99.99
2016-11-19T11:20:31.943Z,99.99
2016-11-19T11:21:31.909Z,99.99
2016-11-19T11:22:31.911Z,99.99
2016-11-19T11:23:31.825Z,99.99
2016-11-19T11:24:31.785Z,99.99
2016-11-19T11:25:31.742Z,99.99
2016-11-19T11:26:31.707Z,99.99
2016-11-19T11:27:31.666Z,99.99
2016-11-19T11:28:31.628Z,99.99
2016-11-19T11:29:31.284Z,99.99
2016-11-19T11:30:31.547Z,99.99
2016-11-19T11:31:31.506Z,99.99
2016-11-19T11:32:31.466Z,99.99
2016-11-19T11:33:31.432Z,99.99
2016-11-19T11:34:31.388Z,99.99
2016-11-19T11:35:31.346Z,99.99
2016-11-19T11:36:31.310Z,99.99
2016-11-19T11:37:31.267Z,99.99
2016-11-19T11:38:31.228Z,99.99
2016-11-19T11:39:31.188Z,99.99
2016-11-19T11:40:31.149Z,99.99
2016-11-19T11:41:31.109Z,99.99
2016-11-19T11:42:31.070Z,99.99
2016-11-19T11:43:31.030Z,99.99
2016-11-19T11:44:30.990Z,99.99
2016-11-19T11:45:30.954Z,99.99
2016-11-19T11:46:30.907Z,99.99
2016-11-19T11:47:30.878Z,99.99
2016-11-19T11:48:30.831Z,99.99
2016-11-19T11:49:30.791Z,99.99
2016-11-19T11:50:30.756Z,99.99
2016-11-19T11:51:30.722Z,99.99
2016-11-19T11:52:30.670Z,99.99
2016-11-19T11:53:30.634Z,99.99
2016-11-19T11:54:30.595Z,99.99
2016-11-19T11:55:30.557Z,99.99
2016-11-19T11:56:30.518Z,99.99
2016-11-19T11:57:30.482Z,99.99
2016-11-19T11:58:30.436Z,99.99
2016-11-19T11:59:30.420Z,99.99
2016-11-19T12:00:30.364Z,99.99
2016-11-19T12:01:30.328Z,99.99
2016-11-19T12:02:30.281Z,99.99
2016-11-19T12:03:30.239Z,99.99
2016-11-19T12:04:29.897Z,99.99
2016-11-19T12:05:29.862Z,99.99
2016-11-19T12:06:30.124Z,99.99
2016-11-19T12:07:30.083Z,99.99
2016-11-19T12:08:30.040Z,99.99
2016-11-19T12:09:30.003Z,99.99
2016-11-19T12:10:29.991Z,99.99
2016-11-19T12:11:29.928Z,99.99
2016-11-19T12:12:29.585Z,99.99
2016-11-19T12:13:29.846Z,99.99
2016-11-19T12:14:29.808Z,99.99
2016-11-19T12:15:29.768Z,99.99
2016-11-19T12:16:29.730Z,99.99
2016-11-19T12:17:29.387Z,99.99
2016-11-19T12:18:29.648Z,99.99
2016-11-19T12:19:29.608Z,99.99
2016-11-19T12:20:29.570Z,99.99
2016-11-19T12:21:29.535Z,99.99
2016-11-19T12:22:29.495Z,99.99
2016-11-19T12:23:29.459Z,99.99
2016-11-19T12:24:29.111Z,99.99
2016-11-19T12:25:29.373Z,99.99
2016-11-19T12:26:29.345Z,99.77
2016-11-19T12:27:29.297Z,99.87
2016-11-19T12:28:29.255Z,99.77
2016-11-19T12:29:29.217Z,99.58
2016-11-19T12:30:29.180Z,99.92
2016-11-19T12:31:29.145Z,99.92
2016-11-19T12:32:29.100Z,99.49
2016-11-19T12:33:29.059Z,99.83
2016-11-19T12:34:29.024Z,99.68
2016-11-19T12:35:28.980Z,99.64
2016-11-19T12:36:28.942Z,99.3
2016-11-19T12:37:28.904Z,99.4
2016-11-19T12:38:28.862Z,99.58
2016-11-19T12:39:28.821Z,99.3
2016-11-19T12:40:28.784Z,99.58
2016-11-19T12:41:28.744Z,99.58
2016-11-19T12:42:28.402Z,99.4
2016-11-19T12:43:28.663Z,99.4
2016-11-19T12:44:28.625Z,99.35
2016-11-19T12:45:28.286Z,99.58
2016-11-19T12:46:28.550Z,99.4
2016-11-19T12:47:28.506Z,99.26
2016-11-19T12:48:28.467Z,99.3
2016-11-19T12:49:28.428Z,99.44
2016-11-19T12:50:28.389Z,99.16
2016-11-19T12:51:28.348Z,99.16
2016-11-19T12:52:28.308Z,99.07
2016-11-19T12:53:28.274Z,98.97
2016-11-19T12:54:28.228Z,98.97